Time;durP1;ratioP1;P1;durP2;ratioP2;P2;SDS_P1;SDS_P2;PMS_P1;PMS_P2;Temp;Humidity;BMP_temperature;BMP_pressure;BME280_temperature;BME280_humidity;BME280_pressure;Samples;Min_cycle;Max_cycle;Signal;HPM_P1;HPM_P2
2023/04/16 00:02:06;;;;;;;13.05;10.60;;;;;;;8.42;100.00;98350.06;15276035;19;20015;-49
2023/04/16 00:07:31;;;;;;;15.63;12.35;;;;;;;8.43;100.00;98351.75;15278991;19;20018;-48
2023/04/16 00:12:58;;;;;;;16.83;13.75;;;;;;;8.43;100.00;98339.19;15271865;19;20036;-46
2023/04/16 00:18:23;;;;;;;13.07;11.00;;;;;;;8.40;100.00;98344.84;15279246;19;20021;-45
2023/04/16 00:23:47;;;;;;;8.85;7.95;;;;;;;8.39;100.00;98353.91;15272548;19;20025;-48
2023/04/16 00:29:15;;;;;;;5.75;5.18;;;;;;;8.33;100.00;98336.53;15278957;19;20021;-47
2023/04/16 00:34:39;;;;;;;5.82;5.10;;;;;;;8.29;100.00;98328.94;15269817;19;20015;-49
2023/04/16 00:40:04;;;;;;;4.10;3.70;;;;;;;8.24;100.00;98332.09;15270420;19;20022;-46
2023/04/16 00:45:31;;;;;;;3.10;2.90;;;;;;;8.19;100.00;98323.63;15276120;19;20018;-47
2023/04/16 00:50:57;;;;;;;3.10;2.80;;;;;;;8.20;100.00;98329.84;15282114;19;20420;-47
2023/04/16 00:56:22;;;;;;;3.28;2.97;;;;;;;8.17;100.00;98326.47;15289849;19;20006;-49
2023/04/16 01:01:50;;;;;;;2.78;2.58;;;;;;;8.16;100.00;98323.94;15290032;19;20039;-48
2023/04/16 01:07:15;;;;;;;2.70;2.50;;;;;;;8.12;100.00;98317.16;15288861;19;20014;-51
2023/04/16 01:12:40;;;;;;;2.50;2.30;;;;;;;8.08;100.00;98326.50;15284400;19;20033;-46
2023/04/16 01:18:07;;;;;;;2.50;2.30;;;;;;;8.05;100.00;98324.97;15288689;19;20042;-46
2023/04/16 01:23:34;;;;;;;2.53;2.33;;;;;;;8.05;100.00;98333.00;15284355;19;20015;-47
2023/04/16 01:28:59;;;;;;;2.42;2.22;;;;;;;8.02;100.00;98333.28;15292263;19;20025;-46
2023/04/16 01:34:24;;;;;;;2.75;2.55;;;;;;;7.97;100.00;98322.19;15281628;19;20018;-47
2023/04/16 01:39:51;;;;;;;2.60;2.40;;;;;;;7.96;100.00;98337.41;15279684;19;20019;-49
2023/04/16 01:45:16;;;;;;;2.78;2.58;;;;;;;7.95;100.00;98340.25;15283688;19;20047;-46
2023/04/16 01:50:41;;;;;;;3.10;2.72;;;;;;;7.93;100.00;98343.09;15278004;19;20023;-46
2023/04/16 01:56:09;;;;;;;3.30;3.00;;;;;;;7.85;100.00;98333.09;15281161;19;20090;-47
2023/04/16 02:01:33;;;;;;;3.85;3.50;;;;;;;7.80;100.00;98345.25;15285133;19;20018;-50
2023/04/16 02:06:58;;;;;;;4.47;4.07;;;;;;;7.81;100.00;98338.91;15284812;19;20490;-49
2023/04/16 02:12:25;;;;;;;5.47;4.97;;;;;;;7.82;100.00;98338.75;15280791;19;20025;-45
2023/04/16 02:17:53;;;;;;;4.78;4.38;;;;;;;7.84;100.00;98350.16;15284142;19;20018;-47
2023/04/16 02:23:19;;;;;;;5.53;5.03;;;;;;;7.80;100.00;98350.59;15278845;19;20086;-49
2023/04/16 02:28:46;;;;;;;5.20;4.70;;;;;;;7.79;100.00;98349.75;15285601;19;20377;-45
2023/04/16 02:34:19;;;;;;;5.00;4.50;;;;;;;7.78;100.00;98357.94;15276243;19;20014;-48
2023/04/16 02:39:45;;;;;;;4.93;4.40;;;;;;;7.78;100.00;98352.59;15278497;19;20042;-46
2023/04/16 02:45:13;;;;;;;3.80;3.50;;;;;;;7.81;100.00;98360.34;15278811;19;20029;-47
2023/04/16 02:50:39;;;;;;;3.90;3.50;;;;;;;7.79;100.00;98359.66;15274591;19;20371;-51
2023/04/16 02:56:04;;;;;;;3.58;3.28;;;;;;;7.79;100.00;98354.28;15278702;19;20044;-47
2023/04/16 03:01:31;;;;;;;3.40;3.10;;;;;;;7.79;100.00;98365.00;15279925;19;20042;-47
2023/04/16 03:06:56;;;;;;;2.85;2.65;;;;;;;7.79;100.00;98354.28;15286637;19;20014;-48
2023/04/16 03:12:21;;;;;;;2.88;2.67;;;;;;;7.65;100.00;98351.06;15278737;19;20015;-48
2023/04/16 03:17:48;;;;;;;3.25;2.95;;;;;;;7.67;100.00;98351.75;15283658;19;20038;-45
2023/04/16 03:23:19;;;;;;;3.17;2.88;;;;;;;7.63;100.00;98345.00;15277871;19;20487;-47
2023/04/16 03:28:44;;;;;;;2.37;2.17;;;;;;;7.61;100.00;98357.69;15282814;19;20078;-47
2023/04/16 03:34:13;;;;;;;2.50;2.30;;;;;;;7.65;100.00;98363.59;15271639;19;20014;-46
2023/04/16 03:39:38;;;;;;;3.03;2.58;;;;;;;7.67;100.00;98377.72;15282896;19;20042;-48
2023/04/16 03:45:02;;;;;;;2.78;2.58;;;;;;;7.68;100.00;98390.13;15275233;19;20769;-46
2023/04/16 03:50:31;;;;;;;2.40;2.20;;;;;;;7.68;100.00;98396.38;15273271;19;20018;-49
2023/04/16 03:55:58;;;;;;;2.63;2.42;;;;;;;7.68;100.00;98399.03;15267097;19;20483;-48
2023/04/16 04:01:23;;;;;;;4.00;3.60;;;;;;;7.70;100.00;98409.63;15278765;19;20015;-48
2023/04/16 04:06:50;;;;;;;6.07;5.47;;;;;;;7.69;100.00;98419.50;15272336;19;20038;-47
2023/04/16 04:12:15;;;;;;;6.32;5.70;;;;;;;7.67;100.00;98409.91;15275695;19;20020;-45
2023/04/16 04:17:39;;;;;;;8.23;6.97;;;;;;;7.63;100.00;98425.44;15279720;19;20014;-46
2023/04/16 04:23:13;;;;;;;8.73;7.82;;;;;;;7.62;100.00;98426.41;15281870;19;20031;-48
2023/04/16 04:28:38;;;;;;;13.73;11.18;;;;;;;7.54;100.00;98439.69;15289624;19;20014;-47
2023/04/16 04:34:03;;;;;;;14.05;11.52;;;;;;;7.58;100.00;98445.63;15286204;19;20030;-48
2023/04/16 04:39:31;;;;;;;15.00;12.02;;;;;;;7.58;100.00;98453.66;15281228;19;20845;-48
2023/04/16 04:44:56;;;;;;;14.82;11.52;;;;;;;7.59;100.00;98456.19;15289850;19;20014;-45
2023/04/16 04:50:21;;;;;;;16.00;12.55;;;;;;;7.61;100.00;98470.31;15286651;19;20022;-46
2023/04/16 04:55:49;;;;;;;15.32;11.93;;;;;;;7.61;100.00;98464.94;15283998;19;20850;-45
2023/04/16 05:01:26;;;;;;;14.30;11.85;;;;;;;7.63;100.00;98484.41;15291983;19;20039;-46
2023/04/16 05:06:50;;;;;;;15.88;12.27;;;;;;;7.64;100.00;98485.28;15287753;19;20022;-47
2023/04/16 05:12:17;;;;;;;13.38;10.93;;;;;;;7.66;100.00;98500.22;15286133;19;20032;-47
2023/04/16 05:17:42;;;;;;;15.40;11.95;;;;;;;7.69;100.00;98499.97;15290513;19;20014;-47
2023/04/16 05:23:14;;;;;;;17.30;12.40;;;;;;;7.74;100.00;98517.44;15281449;19;20010;-47
2023/04/16 05:28:42;;;;;;;14.30;11.02;;;;;;;7.78;100.00;98521.53;15284991;19;20017;-46
2023/04/16 05:34:06;;;;;;;14.02;10.77;;;;;;;7.80;100.00;98522.25;15283359;19;20504;-44
2023/04/16 05:39:31;;;;;;;13.07;10.70;;;;;;;7.84;100.00;98534.38;15281868;19;20051;-49
2023/04/16 05:44:59;;;;;;;13.77;11.38;;;;;;;7.88;100.00;98540.34;15275834;19;20448;-45
2023/04/16 05:50:24;;;;;;;13.95;11.20;;;;;;;7.92;100.00;98547.09;15284583;19;20544;-46
2023/04/16 05:55:48;;;;;;;56.15;9.93;;;;;;;7.94;100.00;98556.69;15282286;19;20010;-46
2023/04/16 06:01:16;;;;;;;20.58;9.05;;;;;;;7.93;100.00;98555.03;15283131;19;20016;-47
2023/04/16 06:06:40;;;;;;;13.05;9.68;;;;;;;7.92;100.00;98547.97;15284017;19;20018;-48
2023/04/16 06:12:06;;;;;;;12.98;9.63;;;;;;;7.89;100.00;98556.28;15285078;19;20471;-48
2023/04/16 06:17:33;;;;;;;48.75;10.85;;;;;;;7.91;100.00;98567.72;15274300;19;20489;-48
2023/04/16 06:23:04;;;;;;;10.40;8.48;;;;;;;7.88;100.00;98567.16;15279637;19;20015;-47
2023/04/16 06:28:29;;;;;;;10.77;8.70;;;;;;;7.88;100.00;98578.72;15283494;19;20021;-47
2023/04/16 06:33:56;;;;;;;12.77;9.55;;;;;;;7.92;100.00;98579.28;15259918;19;20070;-51
2023/04/16 06:39:21;;;;;;;12.35;10.02;;;;;;;7.96;100.00;98586.06;15277616;19;20027;-47
2023/04/16 06:44:45;;;;;;;12.75;10.50;;;;;;;7.99;100.00;98586.63;15277978;19;20014;-46
2023/04/16 06:50:13;;;;;;;13.30;10.55;;;;;;;7.98;100.00;98590.31;15273802;19;20017;-48
2023/04/16 06:55:37;;;;;;;13.80;11.18;;;;;;;7.99;100.00;98596.53;15278425;19;20021;-47
2023/04/16 07:01:02;;;;;;;17.73;10.85;;;;;;;8.04;100.00;98602.31;15279040;19;20010;-46
2023/04/16 07:06:30;;;;;;;12.30;10.27;;;;;;;8.04;100.00;98605.00;15279000;19;20014;-47
2023/04/16 07:11:56;;;;;;;8.82;7.22;;;;;;;8.10;100.00;98612.50;15280054;19;20480;-46
2023/04/16 07:17:20;;;;;;;12.63;10.10;;;;;;;8.14;100.00;98621.94;15278499;19;20024;-51
2023/04/16 07:22:54;;;;;;;7.70;6.80;;;;;;;8.17;100.00;98631.56;15274831;19;20010;-46
2023/04/16 07:28:19;;;;;;;3.53;3.22;;;;;;;8.17;100.00;98637.75;15279309;19;20337;-46
2023/04/16 07:33:43;;;;;;;3.20;2.90;;;;;;;8.06;100.00;98632.53;15280581;19;21044;-45
2023/04/16 07:39:12;;;;;;;3.03;2.83;;;;;;;8.04;100.00;98636.34;15278849;19;20033;-49
2023/04/16 07:44:37;;;;;;;2.92;2.72;;;;;;;7.97;100.00;98630.69;15274490;19;20015;-47
2023/04/16 07:50:02;;;;;;;2.75;2.55;;;;;;;8.01;100.00;98635.63;15273223;19;20724;-50
2023/04/16 07:55:29;;;;;;;2.80;2.60;;;;;;;8.03;100.00;98640.84;15272981;19;20014;-48
2023/04/16 08:00:54;;;;;;;2.08;1.88;;;;;;;7.92;100.00;98644.53;15276713;19;20007;-47
2023/04/16 08:06:18;;;;;;;1.98;1.88;;;;;;;7.84;100.00;98636.31;15278126;19;20749;-50
2023/04/16 08:11:47;;;;;;;2.20;2.00;;;;;;;7.87;100.00;98649.44;15277180;19;21050;-49
2023/04/16 08:17:12;;;;;;;2.63;2.42;;;;;;;7.85;100.00;98652.28;15276541;19;20017;-49
2023/04/16 08:22:43;;;;;;;2.88;2.60;;;;;;;7.80;100.00;98656.38;15268942;19;20015;-47
2023/04/16 08:28:11;;;;;;;2.40;2.30;;;;;;;7.76;100.00;98655.75;15278463;19;20025;-48
2023/04/16 08:33:35;;;;;;;2.70;2.50;;;;;;;7.75;100.00;98658.59;15275622;19;20018;-47
2023/04/16 08:39:00;;;;;;;3.17;2.88;;;;;;;7.79;100.00;98670.75;15272606;19;20018;-48
2023/04/16 08:44:33;;;;;;;4.50;4.10;;;;;;;7.86;100.00;98682.63;15273008;19;20094;-46
2023/04/16 08:50:01;;;;;;;5.25;4.72;;;;;;;7.88;100.00;98693.22;15272688;19;20034;-48
2023/04/16 08:55:29;;;;;;;5.45;4.93;;;;;;;8.00;100.00;98698.34;15268596;19;20025;-49
2023/04/16 09:00:57;;;;;;;4.07;3.78;;;;;;;7.98;100.00;98708.34;15273085;19;20024;-46
2023/04/16 09:06:23;;;;;;;4.60;4.20;;;;;;;8.09;100.00;98707.41;15280186;19;20028;-46
2023/04/16 09:11:51;;;;;;;4.00;3.70;;;;;;;8.08;100.00;98699.47;15294357;19;20021;-47
2023/04/16 12:51:20;;;;;;;6.75;5.53;;;;;;;8.06;100.00;98833.78;15305582;19;19999;-85
2023/04/16 12:56:44;;;;;;;7.47;6.40;;;;;;;8.10;100.00;98834.38;15304961;19;20082;-87
2023/04/16 13:02:10;;;;;;;6.57;5.95;;;;;;;8.04;100.00;98835.75;15304209;19;20022;-87
2023/04/16 13:07:37;;;;;;;7.68;6.53;;;;;;;8.11;100.00;98846.78;15300062;19;20014;-86
2023/04/16 13:13:01;;;;;;;7.00;6.00;;;;;;;8.09;100.00;98846.94;15293050;19;20029;-88
2023/04/16 13:18:27;;;;;;;6.85;5.88;;;;;;;8.16;100.00;98849.94;15294806;19;20021;-86
2023/04/16 13:23:55;;;;;;;6.88;6.13;;;;;;;8.14;100.00;98852.75;15297670;19;20067;-85
2023/04/16 13:29:21;;;;;;;8.57;7.20;;;;;;;8.07;100.00;98866.81;15299204;19;20022;-88
2023/04/16 13:34:46;;;;;;;9.93;7.95;;;;;;;8.05;100.00;98863.44;15291107;19;20018;-89
2023/04/16 13:40:14;;;;;;;10.30;8.23;;;;;;;8.04;100.00;98851.84;15309307;19;20465;-86
2023/04/16 13:45:39;;;;;;;10.80;8.18;;;;;;;8.06;100.00;98855.25;15289016;19;20022;-87
2023/04/16 13:51:04;;;;;;;11.93;9.40;;;;;;;8.14;100.00;98857.28;15299396;19;20025;-86
2023/04/16 13:56:32;;;;;;;11.77;9.23;;;;;;;8.18;100.00;98864.03;15300436;19;20350;-86
2023/04/16 14:01:57;;;;;;;10.02;8.63;;;;;;;8.12;100.00;98873.50;15305247;19;20042;-87
2023/04/16 14:07:25;;;;;;;9.85;8.18;;;;;;;8.01;100.00;98863.72;15304993;19;20098;-88
2023/04/16 14:12:53;;;;;;;11.80;9.20;;;;;;;8.12;100.00;98864.59;15302245;19;20442;-86
2023/04/16 14:18:20;;;;;;;10.73;8.82;;;;;;;8.09;100.00;98868.41;15298516;19;20018;-86
2023/04/16 14:23:50;;;;;;;12.88;9.50;;;;;;;8.17;100.00;98868.59;15301173;19;20683;-87
2023/04/16 14:29:11;;;;;;;12.80;10.30;;;;;;;8.20;100.00;98878.19;15297117;19;20022;-86
2023/04/16 14:34:36;;;;;;;17.50;11.18;;;;;;;8.00;100.00;98878.09;15303704;19;20021;-87
2023/04/16 14:40:01;;;;;;;16.35;12.45;;;;;;;7.97;100.00;98877.53;15305192;19;20027;-88
2023/04/16 14:45:29;;;;;;;20.00;14.13;;;;;;;7.98;100.00;98889.97;15290832;19;20021;-87
2023/04/16 14:50:55;;;;;;;27.45;17.20;;;;;;;7.96;100.00;98899.97;15295085;19;20010;-89
2023/04/16 14:56:20;;;;;;;25.23;17.90;;;;;;;7.94;100.00;98902.78;15298483;19;20355;-86
2023/04/16 15:01:48;;;;;;;23.33;16.20;;;;;;;7.84;100.00;98905.41;15295626;19;20085;-86
2023/04/16 19:04:55;;;;;;;17.13;13.85;;;;;;;7.64;100.00;99065.34;15300894;19;19999;-86
2023/04/16 19:10:21;;;;;;;17.85;14.32;;;;;;;7.60;100.00;99071.94;15293768;19;20014;-85
2023/04/16 19:15:45;;;;;;;18.67;14.15;;;;;;;7.65;100.00;99068.84;15287735;19;20019;-86
2023/04/16 19:21:13;;;;;;;14.52;12.60;;;;;;;7.59;100.00;99061.34;15290713;19;20015;-86
2023/04/16 19:26:38;;;;;;;16.20;13.60;;;;;;;7.57;100.00;99064.16;15284093;19;20564;-86
2023/04/16 19:32:03;;;;;;;17.45;14.65;;;;;;;7.60;100.00;99066.56;15289445;19;20033;-84
2023/04/16 19:37:32;;;;;;;18.58;14.48;;;;;;;7.59;100.00;99072.06;15283149;19;20014;-86
2023/04/16 19:42:56;;;;;;;13.25;11.85;;;;;;;7.78;100.00;99071.41;15287508;19;20015;-85
2023/04/16 19:48:22;;;;;;;11.68;10.27;;;;;;;7.92;100.00;99057.69;15290415;19;20018;-83
2023/04/16 19:53:49;;;;;;;11.60;10.40;;;;;;;8.07;100.00;99046.63;15287267;19;20023;-83
2023/04/16 19:59:14;;;;;;;11.75;10.23;;;;;;;8.16;100.00;99027.91;15282826;19;20010;-86
2023/04/16 20:04:47;;;;;;;11.85;9.80;;;;;;;8.23;100.00;99033.63;15284547;19;20473;-83
2023/04/16 20:10:15;;;;;;;12.35;8.15;;;;;;;8.25;100.00;99020.03;15286094;19;20033;-85
2023/04/16 20:15:40;;;;;;;8.10;7.30;;;;;;;8.31;100.00;99023.06;15281304;19;20033;-85
2023/04/16 20:21:05;;;;;;;8.93;7.50;;;;;;;8.20;100.00;99023.13;15289276;19;20011;-84
2023/04/16 20:26:35;;;;;;;9.68;8.75;;;;;;;8.13;100.00;99032.69;15284190;19;20018;-84
2023/04/16 20:32:01;;;;;;;10.07;9.07;;;;;;;8.09;100.00;99028.56;15286816;19;20017;-82
2023/04/16 20:37:28;;;;;;;10.63;9.48;;;;;;;7.97;100.00;99047.41;15285129;19;20010;-83
2023/04/16 20:42:56;;;;;;;11.45;10.07;;;;;;;7.99;100.00;99053.50;15284872;19;20296;-82
2023/04/16 20:48:20;;;;;;;11.38;10.18;;;;;;;7.97;100.00;99060.81;15283509;19;20063;-83
2023/04/16 20:53:44;;;;;;;14.32;11.05;;;;;;;7.95;100.00;99056.56;15283233;19;20013;-83
2023/04/16 20:59:12;;;;;;;13.07;11.30;;;;;;;7.96;100.00;99061.81;15281397;19;20021;-84
